sensor_id;sensor_type;location;lat;lon;timestamp;P1;durP1;ratioP1;P2;durP2;ratioP2
70707;SDS011;58277;47.316;18.908;2023-07-09T00:00:29;12.82;;;9.02;;
70707;SDS011;58277;47.316;18.908;2023-07-09T00:02:51;12.43;;;8.47;;
70707;SDS011;58277;47.316;18.908;2023-07-09T00:05:15;12.20;;;8.93;;
70707;SDS011;58277;47.316;18.908;2023-07-09T00:07:39;12.45;;;9.05;;
70707;SDS011;58277;47.316;18.908;2023-07-09T00:10:02;14.18;;;9.45;;
70707;SDS011;58277;47.316;18.908;2023-07-09T00:12:26;13.35;;;9.35;;
70707;SDS011;58277;47.316;18.908;2023-07-09T00:14:48;12.50;;;8.73;;
70707;SDS011;58277;47.316;18.908;2023-07-09T00:17:15;13.68;;;8.95;;
70707;SDS011;58277;47.316;18.908;2023-07-09T00:19:51;15.95;;;9.63;;
70707;SDS011;58277;47.316;18.908;2023-07-09T00:22:15;15.00;;;9.70;;
70707;SDS011;58277;47.316;18.908;2023-07-09T00:24:39;15.75;;;10.40;;
70707;SDS011;58277;47.316;18.908;2023-07-09T00:27:01;15.70;;;9.43;;
70707;SDS011;58277;47.316;18.908;2023-07-09T00:29:24;13.82;;;9.57;;
70707;SDS011;58277;47.316;18.908;2023-07-09T00:31:47;14.32;;;9.60;;
70707;SDS011;58277;47.316;18.908;2023-07-09T00:34:13;14.15;;;9.60;;
70707;SDS011;58277;47.316;18.908;2023-07-09T00:36:41;13.30;;;10.15;;
70707;SDS011;58277;47.316;18.908;2023-07-09T00:39:13;14.57;;;10.20;;
70707;SDS011;58277;47.316;18.908;2023-07-09T00:41:38;14.05;;;9.95;;
70707;SDS011;58277;47.316;18.908;2023-07-09T00:49:09;13.35;;;10.07;;
70707;SDS011;58277;47.316;18.908;2023-07-09T00:51:40;16.80;;;10.50;;
70707;SDS011;58277;47.316;18.908;2023-07-09T00:54:08;16.73;;;10.45;;
70707;SDS011;58277;47.316;18.908;2023-07-09T00:56:38;12.98;;;9.70;;
70707;SDS011;58277;47.316;18.908;2023-07-09T00:59:05;14.77;;;10.75;;
70707;SDS011;58277;47.316;18.908;2023-07-09T01:01:33;16.13;;;10.43;;
70707;SDS011;58277;47.316;18.908;2023-07-09T01:03:57;13.93;;;10.00;;
70707;SDS011;58277;47.316;18.908;2023-07-09T01:06:27;15.05;;;10.00;;
70707;SDS011;58277;47.316;18.908;2023-07-09T01:08:57;14.52;;;10.00;;
70707;SDS011;58277;47.316;18.908;2023-07-09T01:11:26;13.07;;;9.82;;
70707;SDS011;58277;47.316;18.908;2023-07-09T01:13:53;16.50;;;10.68;;
70707;SDS011;58277;47.316;18.908;2023-07-09T01:16:18;14.60;;;10.13;;
70707;SDS011;58277;47.316;18.908;2023-07-09T01:18:43;15.43;;;10.10;;
70707;SDS011;58277;47.316;18.908;2023-07-09T01:21:09;15.25;;;10.13;;
70707;SDS011;58277;47.316;18.908;2023-07-09T01:23:38;13.98;;;9.50;;
70707;SDS011;58277;47.316;18.908;2023-07-09T01:26:00;16.63;;;9.30;;
70707;SDS011;58277;47.316;18.908;2023-07-09T01:28:23;14.23;;;9.30;;
70707;SDS011;58277;47.316;18.908;2023-07-09T01:30:46;13.38;;;9.07;;
70707;SDS011;58277;47.316;18.908;2023-07-09T01:33:16;14.27;;;9.07;;
70707;SDS011;58277;47.316;18.908;2023-07-09T01:35:39;13.73;;;9.05;;
70707;SDS011;58277;47.316;18.908;2023-07-09T01:38:05;12.05;;;9.02;;
70707;SDS011;58277;47.316;18.908;2023-07-09T01:40:30;12.57;;;9.13;;
70707;SDS011;58277;47.316;18.908;2023-07-09T01:46:01;14.52;;;9.43;;
70707;SDS011;58277;47.316;18.908;2023-07-09T01:48:25;13.35;;;9.68;;
70707;SDS011;58277;47.316;18.908;2023-07-09T01:50:48;14.82;;;10.30;;
70707;SDS011;58277;47.316;18.908;2023-07-09T01:53:12;14.73;;;10.73;;
70707;SDS011;58277;47.316;18.908;2023-07-09T01:55:36;16.20;;;11.70;;
70707;SDS011;58277;47.316;18.908;2023-07-09T01:57:59;16.77;;;11.23;;
70707;SDS011;58277;47.316;18.908;2023-07-09T02:00:22;19.38;;;11.05;;
70707;SDS011;58277;47.316;18.908;2023-07-09T02:02:45;14.73;;;10.52;;
70707;SDS011;58277;47.316;18.908;2023-07-09T02:05:10;15.30;;;10.53;;
70707;SDS011;58277;47.316;18.908;2023-07-09T02:07:35;15.75;;;10.73;;
70707;SDS011;58277;47.316;18.908;2023-07-09T02:09:58;14.40;;;11.02;;
70707;SDS011;58277;47.316;18.908;2023-07-09T02:12:21;14.75;;;10.55;;
70707;SDS011;58277;47.316;18.908;2023-07-09T02:14:45;14.50;;;10.32;;
70707;SDS011;58277;47.316;18.908;2023-07-09T02:17:08;15.90;;;10.37;;
70707;SDS011;58277;47.316;18.908;2023-07-09T02:19:32;16.48;;;10.80;;
70707;SDS011;58277;47.316;18.908;2023-07-09T02:21:55;14.07;;;10.07;;
70707;SDS011;58277;47.316;18.908;2023-07-09T02:24:19;14.27;;;9.52;;
70707;SDS011;58277;47.316;18.908;2023-07-09T02:26:41;15.23;;;9.68;;
70707;SDS011;58277;47.316;18.908;2023-07-09T02:29:04;14.90;;;9.70;;
70707;SDS011;58277;47.316;18.908;2023-07-09T02:31:27;14.35;;;9.60;;
70707;SDS011;58277;47.316;18.908;2023-07-09T02:33:52;13.40;;;10.23;;
70707;SDS011;58277;47.316;18.908;2023-07-09T02:36:15;14.85;;;10.13;;
70707;SDS011;58277;47.316;18.908;2023-07-09T02:38:38;14.20;;;9.95;;
70707;SDS011;58277;47.316;18.908;2023-07-09T02:41:00;13.10;;;9.63;;
70707;SDS011;58277;47.316;18.908;2023-07-09T02:43:24;18.65;;;9.93;;
70707;SDS011;58277;47.316;18.908;2023-07-09T02:45:47;15.45;;;10.13;;
70707;SDS011;58277;47.316;18.908;2023-07-09T02:48:10;14.15;;;9.52;;
70707;SDS011;58277;47.316;18.908;2023-07-09T02:50:34;14.55;;;9.88;;
70707;SDS011;58277;47.316;18.908;2023-07-09T02:52:57;14.37;;;9.63;;
70707;SDS011;58277;47.316;18.908;2023-07-09T02:55:20;13.38;;;9.40;;
70707;SDS011;58277;47.316;18.908;2023-07-09T02:57:42;13.55;;;9.80;;
70707;SDS011;58277;47.316;18.908;2023-07-09T03:00:05;15.57;;;9.10;;
70707;SDS011;58277;47.316;18.908;2023-07-09T03:02:30;13.35;;;9.50;;
70707;SDS011;58277;47.316;18.908;2023-07-09T03:04:53;13.77;;;9.67;;
70707;SDS011;58277;47.316;18.908;2023-07-09T03:07:16;14.10;;;10.23;;
70707;SDS011;58277;47.316;18.908;2023-07-09T03:09:38;14.20;;;10.23;;
70707;SDS011;58277;47.316;18.908;2023-07-09T03:12:01;17.08;;;10.23;;
70707;SDS011;58277;47.316;18.908;2023-07-09T03:14:24;14.38;;;10.55;;
70707;SDS011;58277;47.316;18.908;2023-07-09T03:16:47;13.83;;;10.00;;
70707;SDS011;58277;47.316;18.908;2023-07-09T03:19:09;17.98;;;10.43;;
70707;SDS011;58277;47.316;18.908;2023-07-09T03:21:32;14.93;;;10.32;;
70707;SDS011;58277;47.316;18.908;2023-07-09T03:23:56;14.43;;;9.98;;
70707;SDS011;58277;47.316;18.908;2023-07-09T03:26:19;12.93;;;9.55;;
70707;SDS011;58277;47.316;18.908;2023-07-09T03:28:42;15.23;;;9.90;;
70707;SDS011;58277;47.316;18.908;2023-07-09T03:31:05;15.35;;;9.98;;
70707;SDS011;58277;47.316;18.908;2023-07-09T03:33:28;14.35;;;9.85;;
70707;SDS011;58277;47.316;18.908;2023-07-09T03:35:51;14.55;;;10.13;;
70707;SDS011;58277;47.316;18.908;2023-07-09T03:38:14;13.82;;;9.60;;
70707;SDS011;58277;47.316;18.908;2023-07-09T03:40:37;15.37;;;9.70;;
70707;SDS011;58277;47.316;18.908;2023-07-09T03:43:00;14.90;;;9.55;;
70707;SDS011;58277;47.316;18.908;2023-07-09T03:45:23;13.52;;;9.57;;
70707;SDS011;58277;47.316;18.908;2023-07-09T03:47:46;12.30;;;9.50;;
70707;SDS011;58277;47.316;18.908;2023-07-09T03:50:09;13.43;;;9.50;;
70707;SDS011;58277;47.316;18.908;2023-07-09T03:52:33;12.17;;;9.17;;
70707;SDS011;58277;47.316;18.908;2023-07-09T03:54:56;15.38;;;10.43;;
70707;SDS011;58277;47.316;18.908;2023-07-09T03:57:19;14.95;;;9.77;;
70707;SDS011;58277;47.316;18.908;2023-07-09T03:59:42;14.77;;;10.10;;
70707;SDS011;58277;47.316;18.908;2023-07-09T04:02:04;13.98;;;10.13;;
70707;SDS011;58277;47.316;18.908;2023-07-09T04:04:28;13.37;;;9.37;;
70707;SDS011;58277;47.316;18.908;2023-07-09T04:06:51;14.50;;;9.95;;
70707;SDS011;58277;47.316;18.908;2023-07-09T04:09:13;13.65;;;9.32;;
70707;SDS011;58277;47.316;18.908;2023-07-09T04:11:36;13.57;;;9.23;;
70707;SDS011;58277;47.316;18.908;2023-07-09T04:13:59;14.75;;;10.13;;
70707;SDS011;58277;47.316;18.908;2023-07-09T04:16:21;15.13;;;9.20;;
70707;SDS011;58277;47.316;18.908;2023-07-09T04:18:44;12.13;;;9.80;;
70707;SDS011;58277;47.316;18.908;2023-07-09T04:21:07;14.88;;;9.98;;
70707;SDS011;58277;47.316;18.908;2023-07-09T04:23:30;15.48;;;9.90;;
70707;SDS011;58277;47.316;18.908;2023-07-09T04:25:53;13.20;;;9.50;;
70707;SDS011;58277;47.316;18.908;2023-07-09T04:28:16;13.00;;;8.97;;
70707;SDS011;58277;47.316;18.908;2023-07-09T04:30:38;10.88;;;8.60;;
70707;SDS011;58277;47.316;18.908;2023-07-09T04:33:02;11.98;;;8.80;;
70707;SDS011;58277;47.316;18.908;2023-07-09T04:35:25;11.50;;;8.50;;
70707;SDS011;58277;47.316;18.908;2023-07-09T04:37:47;11.07;;;8.60;;
70707;SDS011;58277;47.316;18.908;2023-07-09T04:40:11;13.27;;;8.93;;
70707;SDS011;58277;47.316;18.908;2023-07-09T04:42:34;13.15;;;9.43;;
70707;SDS011;58277;47.316;18.908;2023-07-09T04:44:56;12.55;;;9.55;;
70707;SDS011;58277;47.316;18.908;2023-07-09T04:47:19;13.23;;;9.73;;
70707;SDS011;58277;47.316;18.908;2023-07-09T04:49:42;12.35;;;8.90;;
70707;SDS011;58277;47.316;18.908;2023-07-09T04:52:05;11.50;;;8.63;;
70707;SDS011;58277;47.316;18.908;2023-07-09T04:54:28;13.15;;;9.05;;
70707;SDS011;58277;47.316;18.908;2023-07-09T04:56:51;13.70;;;9.45;;
70707;SDS011;58277;47.316;18.908;2023-07-09T04:59:13;12.05;;;9.20;;
70707;SDS011;58277;47.316;18.908;2023-07-09T05:01:36;13.15;;;9.77;;
70707;SDS011;58277;47.316;18.908;2023-07-09T05:03:59;13.23;;;10.13;;
70707;SDS011;58277;47.316;18.908;2023-07-09T05:06:22;13.35;;;9.27;;
70707;SDS011;58277;47.316;18.908;2023-07-09T05:08:45;13.50;;;8.93;;
70707;SDS011;58277;47.316;18.908;2023-07-09T05:11:08;13.13;;;8.30;;
70707;SDS011;58277;47.316;18.908;2023-07-09T05:13:31;13.77;;;8.82;;
70707;SDS011;58277;47.316;18.908;2023-07-09T05:15:54;12.23;;;8.57;;
70707;SDS011;58277;47.316;18.908;2023-07-09T05:18:17;13.48;;;8.40;;
70707;SDS011;58277;47.316;18.908;2023-07-09T05:20:41;10.27;;;8.43;;
70707;SDS011;58277;47.316;18.908;2023-07-09T05:23:04;14.48;;;9.05;;
70707;SDS011;58277;47.316;18.908;2023-07-09T05:25:27;13.10;;;9.18;;
70707;SDS011;58277;47.316;18.908;2023-07-09T05:27:50;15.80;;;9.10;;
70707;SDS011;58277;47.316;18.908;2023-07-09T05:30:13;14.10;;;9.43;;
70707;SDS011;58277;47.316;18.908;2023-07-09T05:32:37;14.82;;;9.18;;
70707;SDS011;58277;47.316;18.908;2023-07-09T05:35:00;12.88;;;8.55;;
70707;SDS011;58277;47.316;18.908;2023-07-09T05:37:23;15.63;;;8.90;;
70707;SDS011;58277;47.316;18.908;2023-07-09T05:39:46;11.57;;;9.03;;
70707;SDS011;58277;47.316;18.908;2023-07-09T05:42:08;11.50;;;8.73;;
70707;SDS011;58277;47.316;18.908;2023-07-09T05:44:32;11.07;;;8.43;;
70707;SDS011;58277;47.316;18.908;2023-07-09T05:46:54;14.13;;;8.38;;
70707;SDS011;58277;47.316;18.908;2023-07-09T05:49:18;13.10;;;8.00;;
70707;SDS011;58277;47.316;18.908;2023-07-09T05:51:41;13.80;;;8.23;;
70707;SDS011;58277;47.316;18.908;2023-07-09T05:54:04;11.82;;;7.88;;
70707;SDS011;58277;47.316;18.908;2023-07-09T05:56:27;9.80;;;7.60;;
70707;SDS011;58277;47.316;18.908;2023-07-09T05:58:51;10.70;;;7.63;;
70707;SDS011;58277;47.316;18.908;2023-07-09T06:01:14;9.90;;;7.43;;
70707;SDS011;58277;47.316;18.908;2023-07-09T06:03:37;8.20;;;6.87;;
70707;SDS011;58277;47.316;18.908;2023-07-09T06:06:00;9.30;;;6.40;;
70707;SDS011;58277;47.316;18.908;2023-07-09T06:08:23;9.60;;;6.50;;
70707;SDS011;58277;47.316;18.908;2023-07-09T06:10:55;8.98;;;6.10;;
70707;SDS011;58277;47.316;18.908;2023-07-09T06:13:19;9.02;;;5.90;;
70707;SDS011;58277;47.316;18.908;2023-07-09T06:15:43;9.50;;;5.90;;
70707;SDS011;58277;47.316;18.908;2023-07-09T06:18:06;6.95;;;5.28;;
70707;SDS011;58277;47.316;18.908;2023-07-09T06:20:28;10.85;;;5.85;;
70707;SDS011;58277;47.316;18.908;2023-07-09T06:22:51;10.23;;;5.80;;
70707;SDS011;58277;47.316;18.908;2023-07-09T06:25:14;8.27;;;5.53;;
70707;SDS011;58277;47.316;18.908;2023-07-09T06:27:37;7.93;;;5.47;;
70707;SDS011;58277;47.316;18.908;2023-07-09T06:29:59;7.35;;;4.90;;
70707;SDS011;58277;47.316;18.908;2023-07-09T06:32:22;7.28;;;5.15;;
70707;SDS011;58277;47.316;18.908;2023-07-09T06:34:45;9.02;;;5.22;;
70707;SDS011;58277;47.316;18.908;2023-07-09T06:37:07;7.75;;;5.38;;
70707;SDS011;58277;47.316;18.908;2023-07-09T06:39:30;6.53;;;5.10;;
70707;SDS011;58277;47.316;18.908;2023-07-09T06:41:53;7.35;;;4.72;;
70707;SDS011;58277;47.316;18.908;2023-07-09T06:44:42;9.23;;;5.00;;
70707;SDS011;58277;47.316;18.908;2023-07-09T06:47:05;6.70;;;4.78;;
70707;SDS011;58277;47.316;18.908;2023-07-09T06:49:28;6.50;;;4.88;;
70707;SDS011;58277;47.316;18.908;2023-07-09T06:51:50;7.37;;;4.63;;
70707;SDS011;58277;47.316;18.908;2023-07-09T06:54:13;6.43;;;4.63;;
70707;SDS011;58277;47.316;18.908;2023-07-09T06:56:38;6.28;;;4.78;;
70707;SDS011;58277;47.316;18.908;2023-07-09T06:59:01;5.75;;;4.60;;
70707;SDS011;58277;47.316;18.908;2023-07-09T07:01:23;6.05;;;4.30;;
70707;SDS011;58277;47.316;18.908;2023-07-09T07:03:46;5.87;;;4.20;;
70707;SDS011;58277;47.316;18.908;2023-07-09T07:06:09;5.88;;;4.40;;
70707;SDS011;58277;47.316;18.908;2023-07-09T07:08:32;5.93;;;4.00;;
70707;SDS011;58277;47.316;18.908;2023-07-09T07:10:57;5.28;;;4.03;;
70707;SDS011;58277;47.316;18.908;2023-07-09T07:13:25;5.22;;;4.10;;
70707;SDS011;58277;47.316;18.908;2023-07-09T07:15:51;5.77;;;4.03;;
70707;SDS011;58277;47.316;18.908;2023-07-09T07:18:14;6.53;;;4.43;;
70707;SDS011;58277;47.316;18.908;2023-07-09T07:20:36;7.10;;;4.13;;
70707;SDS011;58277;47.316;18.908;2023-07-09T07:22:59;5.93;;;4.32;;
70707;SDS011;58277;47.316;18.908;2023-07-09T07:25:22;5.53;;;4.63;;
70707;SDS011;58277;47.316;18.908;2023-07-09T07:27:45;6.33;;;4.10;;
70707;SDS011;58277;47.316;18.908;2023-07-09T07:30:08;6.05;;;4.10;;
70707;SDS011;58277;47.316;18.908;2023-07-09T07:32:31;10.23;;;4.40;;
70707;SDS011;58277;47.316;18.908;2023-07-09T07:34:54;6.28;;;4.13;;
70707;SDS011;58277;47.316;18.908;2023-07-09T07:37:18;7.55;;;4.40;;
70707;SDS011;58277;47.316;18.908;2023-07-09T07:39:43;4.57;;;4.00;;
70707;SDS011;58277;47.316;18.908;2023-07-09T07:42:06;6.88;;;4.15;;
70707;SDS011;58277;47.316;18.908;2023-07-09T07:44:29;5.13;;;4.50;;
70707;SDS011;58277;47.316;18.908;2023-07-09T07:46:52;7.05;;;4.43;;
70707;SDS011;58277;47.316;18.908;2023-07-09T07:49:15;7.88;;;4.32;;
70707;SDS011;58277;47.316;18.908;2023-07-09T07:51:38;5.77;;;4.40;;
70707;SDS011;58277;47.316;18.908;2023-07-09T07:54:01;6.97;;;4.20;;
70707;SDS011;58277;47.316;18.908;2023-07-09T07:56:24;6.50;;;4.30;;
70707;SDS011;58277;47.316;18.908;2023-07-09T07:58:48;6.72;;;4.20;;
70707;SDS011;58277;47.316;18.908;2023-07-09T08:01:10;6.00;;;4.20;;
70707;SDS011;58277;47.316;18.908;2023-07-09T08:03:33;5.70;;;4.00;;
70707;SDS011;58277;47.316;18.908;2023-07-09T08:05:56;4.68;;;3.78;;
70707;SDS011;58277;47.316;18.908;2023-07-09T08:08:23;6.45;;;4.05;;
70707;SDS011;58277;47.316;18.908;2023-07-09T08:10:45;5.38;;;4.22;;
70707;SDS011;58277;47.316;18.908;2023-07-09T08:13:08;5.65;;;3.90;;
70707;SDS011;58277;47.316;18.908;2023-07-09T08:15:31;5.20;;;3.80;;
70707;SDS011;58277;47.316;18.908;2023-07-09T08:17:54;6.10;;;4.10;;
70707;SDS011;58277;47.316;18.908;2023-07-09T08:20:17;5.10;;;4.28;;
70707;SDS011;58277;47.316;18.908;2023-07-09T08:22:40;8.30;;;4.10;;
70707;SDS011;58277;47.316;18.908;2023-07-09T08:25:02;6.30;;;4.00;;
70707;SDS011;58277;47.316;18.908;2023-07-09T08:27:25;6.00;;;4.03;;
70707;SDS011;58277;47.316;18.908;2023-07-09T08:29:48;5.65;;;4.22;;
70707;SDS011;58277;47.316;18.908;2023-07-09T08:32:11;5.72;;;4.40;;
70707;SDS011;58277;47.316;18.908;2023-07-09T08:34:34;5.68;;;3.85;;
70707;SDS011;58277;47.316;18.908;2023-07-09T08:36:57;4.55;;;4.10;;
70707;SDS011;58277;47.316;18.908;2023-07-09T08:39:20;6.53;;;4.30;;
70707;SDS011;58277;47.316;18.908;2023-07-09T08:41:45;5.45;;;4.28;;
70707;SDS011;58277;47.316;18.908;2023-07-09T08:47:17;6.45;;;4.25;;
70707;SDS011;58277;47.316;18.908;2023-07-09T08:49:51;6.72;;;4.05;;
70707;SDS011;58277;47.316;18.908;2023-07-09T08:52:24;5.93;;;4.17;;
70707;SDS011;58277;47.316;18.908;2023-07-09T08:54:52;4.97;;;4.30;;
70707;SDS011;58277;47.316;18.908;2023-07-09T08:57:22;5.22;;;4.10;;
70707;SDS011;58277;47.316;18.908;2023-07-09T08:59:49;4.78;;;4.10;;
70707;SDS011;58277;47.316;18.908;2023-07-09T09:02:32;5.07;;;3.90;;
70707;SDS011;58277;47.316;18.908;2023-07-09T09:04:59;5.23;;;3.80;;
70707;SDS011;58277;47.316;18.908;2023-07-09T09:09:56;4.97;;;4.47;;
70707;SDS011;58277;47.316;18.908;2023-07-09T09:12:25;5.55;;;4.00;;
70707;SDS011;58277;47.316;18.908;2023-07-09T09:14:58;7.00;;;4.15;;
70707;SDS011;58277;47.316;18.908;2023-07-09T09:17:24;6.20;;;4.50;;
70707;SDS011;58277;47.316;18.908;2023-07-09T09:20:04;6.35;;;4.00;;
70707;SDS011;58277;47.316;18.908;2023-07-09T09:22:33;4.88;;;4.38;;
70707;SDS011;58277;47.316;18.908;2023-07-09T09:27:50;7.55;;;5.00;;
70707;SDS011;58277;47.316;18.908;2023-07-09T09:30:14;9.47;;;4.80;;
70707;SDS011;58277;47.316;18.908;2023-07-09T09:33:00;7.35;;;4.40;;
70707;SDS011;58277;47.316;18.908;2023-07-09T09:35:42;4.93;;;4.28;;
70707;SDS011;58277;47.316;18.908;2023-07-09T09:38:15;5.10;;;4.38;;
70707;SDS011;58277;47.316;18.908;2023-07-09T09:40:39;5.22;;;4.28;;
70707;SDS011;58277;47.316;18.908;2023-07-09T09:43:07;6.17;;;4.37;;
70707;SDS011;58277;47.316;18.908;2023-07-09T09:45:37;6.63;;;4.38;;
70707;SDS011;58277;47.316;18.908;2023-07-09T09:48:13;6.22;;;4.60;;
70707;SDS011;58277;47.316;18.908;2023-07-09T09:50:41;4.47;;;3.97;;
70707;SDS011;58277;47.316;18.908;2023-07-09T09:53:07;5.68;;;4.22;;
70707;SDS011;58277;47.316;18.908;2023-07-09T09:55:31;6.57;;;4.20;;
70707;SDS011;58277;47.316;18.908;2023-07-09T09:57:54;6.25;;;4.47;;
70707;SDS011;58277;47.316;18.908;2023-07-09T10:00:21;5.93;;;4.50;;
70707;SDS011;58277;47.316;18.908;2023-07-09T10:02:47;5.03;;;4.53;;
70707;SDS011;58277;47.316;18.908;2023-07-09T10:05:16;5.43;;;4.00;;
70707;SDS011;58277;47.316;18.908;2023-07-09T10:08:00;5.23;;;4.13;;
70707;SDS011;58277;47.316;18.908;2023-07-09T10:10:30;6.05;;;4.25;;
70707;SDS011;58277;47.316;18.908;2023-07-09T10:13:05;6.75;;;4.53;;
70707;SDS011;58277;47.316;18.908;2023-07-09T10:16:06;6.40;;;4.53;;
70707;SDS011;58277;47.316;18.908;2023-07-09T10:21:19;4.90;;;4.40;;
70707;SDS011;58277;47.316;18.908;2023-07-09T10:27:00;7.47;;;4.47;;
70707;SDS011;58277;47.316;18.908;2023-07-09T10:32:26;5.75;;;4.57;;
70707;SDS011;58277;47.316;18.908;2023-07-09T10:35:06;5.60;;;4.30;;
70707;SDS011;58277;47.316;18.908;2023-07-09T10:40:21;5.05;;;4.53;;
70707;SDS011;58277;47.316;18.908;2023-07-09T10:42:52;5.55;;;4.30;;
70707;SDS011;58277;47.316;18.908;2023-07-09T10:45:22;6.22;;;4.40;;
70707;SDS011;58277;47.316;18.908;2023-07-09T10:47:53;5.43;;;4.50;;
70707;SDS011;58277;47.316;18.908;2023-07-09T10:50:28;6.57;;;4.80;;
70707;SDS011;58277;47.316;18.908;2023-07-09T10:52:54;4.72;;;4.32;;
70707;SDS011;58277;47.316;18.908;2023-07-09T10:55:30;5.10;;;4.40;;
70707;SDS011;58277;47.316;18.908;2023-07-09T10:58:00;5.10;;;4.60;;
70707;SDS011;58277;47.316;18.908;2023-07-09T11:00:47;6.73;;;4.50;;
70707;SDS011;58277;47.316;18.908;2023-07-09T11:03:22;5.82;;;4.55;;
70707;SDS011;58277;47.316;18.908;2023-07-09T11:05:51;6.18;;;4.20;;
70707;SDS011;58277;47.316;18.908;2023-07-09T11:08:19;5.18;;;4.22;;
70707;SDS011;58277;47.316;18.908;2023-07-09T11:10:49;5.55;;;4.40;;
70707;SDS011;58277;47.316;18.908;2023-07-09T11:13:40;5.70;;;4.47;;
70707;SDS011;58277;47.316;18.908;2023-07-09T11:16:25;6.53;;;4.45;;
70707;SDS011;58277;47.316;18.908;2023-07-09T11:18:56;7.10;;;4.75;;
70707;SDS011;58277;47.316;18.908;2023-07-09T11:21:25;5.32;;;4.40;;
70707;SDS011;58277;47.316;18.908;2023-07-09T11:23:52;5.22;;;4.55;;
70707;SDS011;58277;47.316;18.908;2023-07-09T11:28:46;6.15;;;4.47;;
70707;SDS011;58277;47.316;18.908;2023-07-09T11:31:19;6.07;;;4.68;;
70707;SDS011;58277;47.316;18.908;2023-07-09T11:33:48;6.78;;;4.60;;
70707;SDS011;58277;47.316;18.908;2023-07-09T11:36:25;6.32;;;4.68;;
70707;SDS011;58277;47.316;18.908;2023-07-09T11:38:50;6.13;;;4.57;;
70707;SDS011;58277;47.316;18.908;2023-07-09T11:46:31;4.68;;;3.97;;
70707;SDS011;58277;47.316;18.908;2023-07-09T11:48:54;6.60;;;4.72;;
70707;SDS011;58277;47.316;18.908;2023-07-09T11:51:24;5.33;;;4.83;;
70707;SDS011;58277;47.316;18.908;2023-07-09T11:53:59;5.95;;;4.68;;
70707;SDS011;58277;47.316;18.908;2023-07-09T11:56:23;5.30;;;4.47;;
70707;SDS011;58277;47.316;18.908;2023-07-09T11:58:48;6.13;;;4.60;;
70707;SDS011;58277;47.316;18.908;2023-07-09T12:01:18;5.05;;;4.28;;
70707;SDS011;58277;47.316;18.908;2023-07-09T12:03:44;4.53;;;4.03;;
70707;SDS011;58277;47.316;18.908;2023-07-09T12:06:21;5.43;;;4.53;;
70707;SDS011;58277;47.316;18.908;2023-07-09T12:08:53;5.18;;;4.43;;
70707;SDS011;58277;47.316;18.908;2023-07-09T12:11:34;7.28;;;4.30;;
70707;SDS011;58277;47.316;18.908;2023-07-09T12:14:04;5.97;;;4.68;;
70707;SDS011;58277;47.316;18.908;2023-07-09T12:16:34;6.00;;;4.50;;
70707;SDS011;58277;47.316;18.908;2023-07-09T12:18:59;5.90;;;4.43;;
70707;SDS011;58277;47.316;18.908;2023-07-09T12:21:22;5.10;;;4.57;;
70707;SDS011;58277;47.316;18.908;2023-07-09T12:27:23;5.43;;;4.75;;
70707;SDS011;58277;47.316;18.908;2023-07-09T12:29:49;5.93;;;4.30;;
70707;SDS011;58277;47.316;18.908;2023-07-09T12:32:15;5.15;;;4.65;;
70707;SDS011;58277;47.316;18.908;2023-07-09T12:34:38;6.68;;;4.43;;
70707;SDS011;58277;47.316;18.908;2023-07-09T12:37:01;9.90;;;4.82;;
70707;SDS011;58277;47.316;18.908;2023-07-09T12:39:26;5.28;;;4.13;;
70707;SDS011;58277;47.316;18.908;2023-07-09T12:41:53;13.83;;;4.90;;
70707;SDS011;58277;47.316;18.908;2023-07-09T12:44:18;5.70;;;4.20;;
70707;SDS011;58277;47.316;18.908;2023-07-09T12:46:42;5.38;;;4.20;;
70707;SDS011;58277;47.316;18.908;2023-07-09T12:49:07;4.93;;;4.40;;
70707;SDS011;58277;47.316;18.908;2023-07-09T12:51:29;5.47;;;4.35;;
70707;SDS011;58277;47.316;18.908;2023-07-09T12:56:36;5.75;;;4.05;;
70707;SDS011;58277;47.316;18.908;2023-07-09T12:58:59;4.70;;;4.25;;
70707;SDS011;58277;47.316;18.908;2023-07-09T13:01:24;5.93;;;4.55;;
70707;SDS011;58277;47.316;18.908;2023-07-09T13:03:54;5.97;;;4.90;;
70707;SDS011;58277;47.316;18.908;2023-07-09T13:06:26;7.33;;;4.53;;
70707;SDS011;58277;47.316;18.908;2023-07-09T13:08:54;6.60;;;4.90;;
70707;SDS011;58277;47.316;18.908;2023-07-09T13:11:21;6.57;;;4.82;;
70707;SDS011;58277;47.316;18.908;2023-07-09T13:13:57;5.22;;;4.43;;
70707;SDS011;58277;47.316;18.908;2023-07-09T13:16:21;7.55;;;4.53;;
70707;SDS011;58277;47.316;18.908;2023-07-09T13:18:44;4.97;;;4.33;;
70707;SDS011;58277;47.316;18.908;2023-07-09T13:21:13;5.53;;;4.38;;
70707;SDS011;58277;47.316;18.908;2023-07-09T13:23:39;5.75;;;4.90;;
70707;SDS011;58277;47.316;18.908;2023-07-09T13:26:02;7.10;;;4.63;;
70707;SDS011;58277;47.316;18.908;2023-07-09T13:28:26;5.20;;;4.70;;
70707;SDS011;58277;47.316;18.908;2023-07-09T13:30:51;5.07;;;4.47;;
70707;SDS011;58277;47.316;18.908;2023-07-09T13:33:16;5.85;;;4.80;;
70707;SDS011;58277;47.316;18.908;2023-07-09T13:35:40;5.68;;;4.63;;
70707;SDS011;58277;47.316;18.908;2023-07-09T13:38:03;6.57;;;5.00;;
70707;SDS011;58277;47.316;18.908;2023-07-09T13:40:34;5.22;;;4.57;;
70707;SDS011;58277;47.316;18.908;2023-07-09T13:42:57;5.37;;;4.17;;
70707;SDS011;58277;47.316;18.908;2023-07-09T13:45:21;5.78;;;4.70;;
70707;SDS011;58277;47.316;18.908;2023-07-09T13:47:45;6.07;;;4.40;;
70707;SDS011;58277;47.316;18.908;2023-07-09T13:50:09;6.47;;;4.43;;
70707;SDS011;58277;47.316;18.908;2023-07-09T13:52:33;6.28;;;4.60;;
70707;SDS011;58277;47.316;18.908;2023-07-09T13:54:56;5.83;;;4.60;;
70707;SDS011;58277;47.316;18.908;2023-07-09T13:57:21;7.63;;;4.85;;
70707;SDS011;58277;47.316;18.908;2023-07-09T13:59:45;5.40;;;4.70;;
70707;SDS011;58277;47.316;18.908;2023-07-09T14:02:28;6.82;;;4.50;;
70707;SDS011;58277;47.316;18.908;2023-07-09T14:04:54;4.95;;;4.43;;
70707;SDS011;58277;47.316;18.908;2023-07-09T14:07:36;6.70;;;4.70;;
70707;SDS011;58277;47.316;18.908;2023-07-09T14:10:02;6.22;;;4.55;;
70707;SDS011;58277;47.316;18.908;2023-07-09T14:12:26;5.65;;;4.60;;
70707;SDS011;58277;47.316;18.908;2023-07-09T14:14:50;5.07;;;4.45;;
70707;SDS011;58277;47.316;18.908;2023-07-09T14:17:14;6.10;;;4.88;;
70707;SDS011;58277;47.316;18.908;2023-07-09T14:19:57;5.93;;;4.60;;
70707;SDS011;58277;47.316;18.908;2023-07-09T14:24:48;6.63;;;4.60;;
70707;SDS011;58277;47.316;18.908;2023-07-09T14:27:10;6.13;;;4.60;;
70707;SDS011;58277;47.316;18.908;2023-07-09T14:29:33;5.53;;;4.95;;
70707;SDS011;58277;47.316;18.908;2023-07-09T14:31:56;5.93;;;4.73;;
70707;SDS011;58277;47.316;18.908;2023-07-09T14:36:50;4.88;;;4.38;;
70707;SDS011;58277;47.316;18.908;2023-07-09T14:39:15;5.10;;;4.50;;
70707;SDS011;58277;47.316;18.908;2023-07-09T14:41:38;5.60;;;4.70;;
70707;SDS011;58277;47.316;18.908;2023-07-09T14:44:01;5.53;;;4.43;;
70707;SDS011;58277;47.316;18.908;2023-07-09T14:46:24;5.30;;;4.60;;
70707;SDS011;58277;47.316;18.908;2023-07-09T14:48:47;4.90;;;4.38;;
70707;SDS011;58277;47.316;18.908;2023-07-09T14:51:13;5.43;;;4.55;;
70707;SDS011;58277;47.316;18.908;2023-07-09T14:53:40;5.70;;;4.40;;
70707;SDS011;58277;47.316;18.908;2023-07-09T14:56:03;5.47;;;4.37;;
70707;SDS011;58277;47.316;18.908;2023-07-09T14:58:26;5.18;;;4.45;;
70707;SDS011;58277;47.316;18.908;2023-07-09T15:00:50;5.72;;;5.03;;
70707;SDS011;58277;47.316;18.908;2023-07-09T15:03:16;5.60;;;4.40;;
70707;SDS011;58277;47.316;18.908;2023-07-09T15:05:46;5.88;;;4.53;;